createdAt,value
2019-03-12T00:00:48.259Z,1016.41
2019-03-12T00:01:52.313Z,1016.44
2019-03-12T00:02:56.554Z,1016.45
2019-03-12T00:04:00.829Z,1016.47
2019-03-12T00:05:04.899Z,1016.48
2019-03-12T00:06:09.239Z,1016.50
2019-03-12T00:07:13.371Z,1016.55
2019-03-12T00:08:18.444Z,1016.56
2019-03-12T00:09:22.307Z,1016.56
2019-03-12T00:10:26.480Z,1016.55
2019-03-12T00:11:30.670Z,1016.56
2019-03-12T00:12:34.900Z,1016.58
2019-03-12T00:13:39.138Z,1016.61
2019-03-12T00:14:43.326Z,1016.63
2019-03-12T00:15:47.492Z,1016.59
2019-03-12T00:16:51.796Z,1016.61
2019-03-12T00:17:55.881Z,1016.65
2019-03-12T00:19:00.131Z,1016.69
2019-03-12T00:20:04.224Z,1016.70
2019-03-12T00:21:08.431Z,1016.73
2019-03-12T00:22:12.673Z,1016.78
2019-03-12T00:23:16.835Z,1016.79
2019-03-12T00:24:21.008Z,1016.79
2019-03-12T00:25:25.157Z,1016.80
2019-03-12T00:26:29.445Z,1016.82
2019-03-12T00:27:33.466Z,1016.84
2019-03-12T00:28:37.743Z,1016.89
2019-03-12T00:29:41.962Z,1016.89
2019-03-12T00:30:46.147Z,1016.87
2019-03-12T00:31:50.292Z,1016.89
2019-03-12T00:32:55.922Z,1016.91
2019-03-12T00:33:58.643Z,1016.94
2019-03-12T00:35:02.903Z,1016.96
2019-03-12T00:36:07.092Z,1016.98
2019-03-12T00:37:11.240Z,1016.95
2019-03-12T00:38:15.481Z,1016.98
2019-03-12T00:39:19.609Z,1016.96
2019-03-12T00:40:23.731Z,1017.00
2019-03-12T00:41:28.048Z,1017.00
2019-03-12T00:42:32.192Z,1017.00
2019-03-12T00:43:36.269Z,1016.98
2019-03-12T00:44:43.407Z,1016.98
2019-03-12T00:45:46.804Z,1017.01
2019-03-12T00:46:50.928Z,1017.05
2019-03-12T00:47:55.099Z,1017.04
2019-03-12T00:48:59.372Z,1017.03
2019-03-12T00:50:04.405Z,1017.02
2019-03-12T00:51:08.228Z,1017.03
2019-03-12T00:52:12.518Z,1017.05
2019-03-12T00:53:16.626Z,1017.05
2019-03-12T00:54:20.910Z,1017.08
2019-03-12T00:55:25.067Z,1017.08
2019-03-12T00:56:29.131Z,1017.08
2019-03-12T00:57:33.424Z,1017.11
2019-03-12T00:58:37.480Z,1017.11
2019-03-12T00:59:41.823Z,1017.13
2019-03-12T01:00:45.853Z,1017.18
2019-03-12T01:01:50.057Z,1017.19
2019-03-12T01:02:54.169Z,1017.20
2019-03-12T01:03:58.388Z,1017.23
2019-03-12T01:05:03.494Z,1017.24
2019-03-12T01:06:08.164Z,1017.23
2019-03-12T01:07:11.928Z,1017.23
2019-03-12T01:08:16.176Z,1017.23
2019-03-12T01:09:20.456Z,1017.24
2019-03-12T01:10:24.544Z,1017.24
2019-03-12T01:11:28.557Z,1017.24
2019-03-12T01:12:32.769Z,1017.27
2019-03-12T01:13:37.008Z,1017.29
2019-03-12T01:14:44.119Z,1017.26
2019-03-12T01:15:47.320Z,1017.27
2019-03-12T01:16:51.592Z,1017.22
2019-03-12T01:17:55.739Z,1017.21
2019-03-12T01:18:59.964Z,1017.22
2019-03-12T01:20:04.032Z,1017.22
2019-03-12T01:21:08.317Z,1017.24
2019-03-12T01:22:12.471Z,1017.22
2019-03-12T01:23:16.679Z,1017.22
2019-03-12T01:24:20.767Z,1017.24
2019-03-12T01:25:24.879Z,1017.22
2019-03-12T01:26:29.081Z,1017.24
2019-03-12T01:27:33.270Z,1017.26
2019-03-12T01:28:37.442Z,1017.26
2019-03-12T01:29:41.565Z,1017.25
2019-03-12T01:30:45.777Z,1017.22
2019-03-12T01:31:49.982Z,1017.23
2019-03-12T01:32:54.168Z,1017.23
2019-03-12T01:33:58.429Z,1017.19
2019-03-12T01:35:02.481Z,1017.19
2019-03-12T01:36:06.714Z,1017.18
2019-03-12T01:37:10.937Z,1017.21
2019-03-12T01:38:15.096Z,1017.23
2019-03-12T01:39:19.303Z,1017.25
2019-03-12T01:40:23.600Z,1017.25
2019-03-12T01:41:27.752Z,1017.28
2019-03-12T01:42:31.833Z,1017.28
2019-03-12T01:43:36.078Z,1017.27
2019-03-12T01:44:40.132Z,1017.30
2019-03-12T01:45:44.274Z,1017.31
2019-03-12T01:46:48.589Z,1017.34
2019-03-12T01:47:52.765Z,1017.34
2019-03-12T01:48:56.843Z,1017.36
2019-03-12T01:50:02.260Z,1017.39
2019-03-12T01:51:05.967Z,1017.37
2019-03-12T01:52:10.053Z,1017.43
2019-03-12T01:53:14.396Z,1017.36
2019-03-12T01:54:18.572Z,1017.38
2019-03-12T01:55:22.750Z,1017.38
2019-03-12T01:56:27.043Z,1017.38
2019-03-12T01:57:31.304Z,1017.38
2019-03-12T01:58:35.358Z,1017.38
2019-03-12T01:59:39.485Z,1017.38
2019-03-12T02:00:43.710Z,1017.36
2019-03-12T02:01:47.792Z,1017.36
2019-03-12T02:02:52.169Z,1017.36
2019-03-12T02:03:56.361Z,1017.36
2019-03-12T02:05:00.540Z,1017.35
2019-03-12T02:06:04.730Z,1017.35
2019-03-12T02:11:10.644Z,1017.40
2019-03-12T02:12:14.629Z,1017.42
2019-03-12T02:13:18.744Z,1017.45
2019-03-12T02:14:22.958Z,1017.46
2019-03-12T02:15:27.146Z,1017.46
2019-03-12T02:16:31.273Z,1017.46
2019-03-12T04:04:06.651Z,1017.72
2019-03-12T04:05:10.756Z,1017.72
2019-03-12T04:06:14.708Z,1017.72
2019-03-12T04:07:18.968Z,1017.74
2019-03-12T04:08:23.204Z,1017.73
2019-03-12T04:09:27.234Z,1017.74
2019-03-12T04:10:31.368Z,1017.72
2019-03-12T04:11:35.574Z,1017.69
2019-03-12T04:12:39.706Z,1017.66
2019-03-12T04:13:43.847Z,1017.62
2019-03-12T04:14:48.050Z,1017.60
2019-03-12T04:15:52.212Z,1017.60
2019-03-12T04:16:56.532Z,1017.62
2019-03-12T04:18:00.646Z,1017.64
2019-03-12T04:19:04.932Z,1017.64
2019-03-12T04:20:09.073Z,1017.64
2019-03-12T04:21:13.316Z,1017.61
2019-03-12T04:22:17.478Z,1017.60
2019-03-12T04:23:21.696Z,1017.56
2019-03-12T04:24:25.827Z,1017.54
2019-03-12T04:25:30.028Z,1017.53
2019-03-12T04:26:34.103Z,1017.54
2019-03-12T04:27:38.287Z,1017.58
2019-03-12T04:28:42.374Z,1017.55
2019-03-12T04:29:46.537Z,1017.53
2019-03-12T04:30:50.771Z,1017.49
2019-03-12T04:31:54.838Z,1017.50
2019-03-12T04:32:58.950Z,1017.48
2019-03-12T04:34:03.072Z,1017.47
2019-03-12T04:35:07.355Z,1017.46
2019-03-12T04:36:11.509Z,1017.44
2019-03-12T04:37:15.579Z,1017.43
2019-03-12T04:38:19.834Z,1017.45
2019-03-12T04:39:24.026Z,1017.45
2019-03-12T04:40:28.174Z,1017.44
2019-03-12T04:41:32.399Z,1017.43
2019-03-12T04:42:36.625Z,1017.42
2019-03-12T04:43:40.668Z,1017.42
2019-03-12T04:44:44.911Z,1017.40
2019-03-12T04:45:49.025Z,1017.42
2019-03-12T04:46:52.297Z,1017.41
2019-03-12T04:47:55.463Z,1017.42
2019-03-12T04:48:59.617Z,1017.42
2019-03-12T04:50:03.697Z,1017.46
2019-03-12T04:51:07.921Z,1017.47
2019-03-12T04:52:12.099Z,1017.48
2019-03-12T04:53:16.363Z,1017.48
2019-03-12T04:54:20.376Z,1017.48
2019-03-12T04:55:24.603Z,1017.46
2019-03-12T04:56:28.847Z,1017.45
2019-03-12T04:57:33.018Z,1017.45
2019-03-12T04:58:37.121Z,1017.46
2019-03-12T04:59:41.304Z,1017.49
2019-03-12T05:00:45.456Z,1017.49
2019-03-12T05:01:49.762Z,1017.50
2019-03-12T05:02:53.793Z,1017.48
2019-03-12T05:03:58.005Z,1017.45
2019-03-12T05:05:02.105Z,1017.46
2019-03-12T05:06:06.457Z,1017.45
2019-03-12T05:07:10.644Z,1017.47
2019-03-12T05:08:14.699Z,1017.48
2019-03-12T05:09:19.100Z,1017.46
2019-03-12T05:10:23.104Z,1017.43
2019-03-12T05:11:27.333Z,1017.41
2019-03-12T05:12:31.528Z,1017.41
2019-03-12T05:13:35.699Z,1017.39
2019-03-12T05:14:39.894Z,1017.41
2019-03-12T05:15:44.079Z,1017.43
2019-03-12T05:16:48.353Z,1017.44
2019-03-12T05:17:52.578Z,1017.47
2019-03-12T05:18:56.615Z,1017.49
2019-03-12T05:20:00.925Z,1017.49
2019-03-12T05:21:04.958Z,1017.50
2019-03-12T05:22:09.301Z,1017.48
2019-03-12T05:23:13.434Z,1017.47
2019-03-12T05:24:17.661Z,1017.50
2019-03-12T05:25:21.882Z,1017.51
2019-03-12T05:26:25.974Z,1017.54
2019-03-12T05:27:30.118Z,1017.52
2019-03-12T05:28:34.344Z,1017.51
2019-03-12T05:29:38.557Z,1017.44
2019-03-12T05:30:42.775Z,1017.41
2019-03-12T05:31:46.863Z,1017.38
2019-03-12T05:32:51.196Z,1017.37
2019-03-12T05:33:55.237Z,1017.34
2019-03-12T05:34:59.380Z,1017.35
2019-03-12T05:36:03.546Z,1017.35
2019-03-12T05:37:07.785Z,1017.35
2019-03-12T05:38:11.890Z,1017.34
2019-03-12T05:39:16.124Z,1017.36
2019-03-12T05:40:20.256Z,1017.36
2019-03-12T05:41:27.361Z,1017.37
2019-03-12T05:42:30.687Z,1017.32
2019-03-12T05:43:34.826Z,1017.33
2019-03-12T05:44:38.974Z,1017.38
2019-03-12T05:45:43.125Z,1017.38
2019-03-12T05:46:47.202Z,1017.37
2019-03-12T05:47:51.473Z,1017.34
2019-03-12T05:48:55.528Z,1017.33
2019-03-12T05:49:59.653Z,1017.34
2019-03-12T05:51:03.854Z,1017.35
2019-03-12T05:52:08.983Z,1017.39
2019-03-12T05:53:12.863Z,1017.38
2019-03-12T05:54:17.061Z,1017.36
2019-03-12T05:55:21.163Z,1017.34
2019-03-12T05:56:25.418Z,1017.32
2019-03-12T05:57:29.482Z,1017.28
2019-03-12T05:58:33.626Z,1017.29
2019-03-12T05:59:37.897Z,1017.30
2019-03-12T06:00:42.057Z,1017.25
2019-03-12T06:01:46.887Z,1017.23
2019-03-12T06:02:50.417Z,1017.22
2019-03-12T06:03:54.603Z,1017.23
2019-03-12T06:04:58.786Z,1017.28
2019-03-12T06:06:02.955Z,1017.30
2019-03-12T06:07:07.171Z,1017.27
2019-03-12T06:08:11.374Z,1017.25
2019-03-12T06:09:15.480Z,1017.27
2019-03-12T06:10:19.729Z,1017.30
2019-03-12T06:11:23.920Z,1017.29
2019-03-12T06:12:28.015Z,1017.33
2019-03-12T06:13:32.199Z,1017.32
2019-03-12T06:14:36.452Z,1017.28
2019-03-12T06:15:40.510Z,1017.30
2019-03-12T06:16:44.805Z,1017.32
2019-03-12T06:17:48.987Z,1017.32
2019-03-12T06:18:53.150Z,1017.31
2019-03-12T06:19:57.314Z,1017.31
2019-03-12T06:21:01.485Z,1017.29
2019-03-12T06:22:05.700Z,1017.30
2019-03-12T06:23:09.888Z,1017.25
2019-03-12T06:24:14.108Z,1017.24
2019-03-12T06:25:18.327Z,1017.23
2019-03-12T06:26:22.557Z,1017.21
2019-03-12T06:27:26.739Z,1017.21
2019-03-12T06:28:31.301Z,1017.18
2019-03-12T06:29:35.107Z,1017.20
2019-03-12T06:30:39.379Z,1017.17
2019-03-12T06:31:43.551Z,1017.15
2019-03-12T06:32:47.880Z,1017.14
2019-03-12T06:33:52.027Z,1017.14
2019-03-12T06:34:56.181Z,1017.13
2019-03-12T06:36:00.393Z,1017.15
2019-03-12T06:37:04.577Z,1017.17
2019-03-12T06:38:08.763Z,1017.14
2019-03-12T06:39:13.017Z,1017.15
2019-03-12T06:40:17.170Z,1017.15
2019-03-12T06:41:21.348Z,1017.18
2019-03-12T06:42:25.431Z,1017.18
2019-03-12T06:43:29.684Z,1017.21
2019-03-12T06:44:33.881Z,1017.21
2019-03-12T06:45:37.961Z,1017.23
2019-03-12T06:46:42.128Z,1017.20
2019-03-12T06:47:46.669Z,1017.21
2019-03-12T06:48:50.560Z,1017.23
2019-03-12T06:49:54.629Z,1017.19
2019-03-12T06:50:58.790Z,1017.16
2019-03-12T06:52:03.015Z,1017.19
2019-03-12T06:53:07.244Z,1017.19
2019-03-12T06:54:11.393Z,1017.21
2019-03-12T06:55:15.626Z,1017.19
2019-03-12T06:56:19.722Z,1017.17
2019-03-12T06:57:23.867Z,1017.17
2019-03-12T06:58:28.001Z,1017.15
2019-03-12T06:59:32.160Z,1017.16
2019-03-12T07:00:36.411Z,1017.15
2019-03-12T07:01:40.586Z,1017.13
2019-03-12T07:02:44.653Z,1017.15
2019-03-12T07:03:48.776Z,1017.17
2019-03-12T07:04:53.032Z,1017.16
2019-03-12T07:05:57.092Z,1017.13
2019-03-12T07:07:01.316Z,1017.11
2019-03-12T07:08:06.429Z,1017.09
2019-03-12T07:09:09.857Z,1017.09
2019-03-12T07:10:13.902Z,1017.10
2019-03-12T07:11:18.167Z,1017.07
2019-03-12T07:12:22.260Z,1017.07
2019-03-12T07:13:26.577Z,1017.07
2019-03-12T07:14:30.639Z,1017.04
2019-03-12T07:15:34.685Z,1017.03
2019-03-12T07:16:38.883Z,1017.00
2019-03-12T07:17:45.552Z,1017.05
2019-03-12T07:18:47.212Z,1017.06
2019-03-12T07:19:51.483Z,1017.08
2019-03-12T07:20:55.664Z,1017.03
2019-03-12T07:21:59.784Z,1017.01
2019-03-12T07:23:03.905Z,1017.00
2019-03-12T07:24:07.999Z,1017.04
2019-03-12T07:25:12.329Z,1017.02
2019-03-12T07:26:16.455Z,1017.05
2019-03-12T07:27:20.626Z,1017.07
2019-03-12T07:28:24.851Z,1017.06
2019-03-12T07:29:29.032Z,1017.06
2019-03-12T07:30:33.158Z,1017.04
2019-03-12T07:31:37.291Z,1017.08
2019-03-12T07:32:41.623Z,1017.09
2019-03-12T07:33:45.774Z,1017.11
2019-03-12T07:34:49.875Z,1017.10
2019-03-12T07:35:54.282Z,1017.10
2019-03-12T07:36:58.471Z,1017.03
2019-03-12T07:38:02.626Z,1017.00
2019-03-12T07:39:06.823Z,1017.00
2019-03-12T07:40:10.972Z,1017.02
2019-03-12T07:41:25.201Z,1017.01
2019-03-12T07:42:19.359Z,1017.04
2019-03-12T07:43:23.518Z,1017.03
2019-03-12T07:44:27.658Z,1017.00
2019-03-12T07:45:31.824Z,1017.01
2019-03-12T07:46:35.944Z,1016.98
2019-03-12T07:47:41.988Z,1016.99
2019-03-12T07:48:44.329Z,1016.98
2019-03-12T07:49:48.617Z,1016.97
2019-03-12T07:50:52.852Z,1016.98
2019-03-12T07:51:56.943Z,1017.00
2019-03-12T07:53:01.256Z,1016.99
2019-03-12T07:54:05.328Z,1017.01
2019-03-12T07:55:09.523Z,1017.04
2019-03-12T07:56:13.646Z,1017.06
2019-03-12T07:57:17.812Z,1017.00
2019-03-12T07:58:34.910Z,1016.98
2019-03-12T07:59:26.199Z,1016.97
2019-03-12T08:00:30.441Z,1016.91
2019-03-12T08:01:34.607Z,1016.91
2019-03-12T08:02:38.841Z,1016.92
2019-03-12T08:03:43.015Z,1016.89
2019-03-12T08:04:47.132Z,1016.89
2019-03-12T08:05:51.296Z,1016.90
2019-03-12T08:06:55.434Z,1016.88
2019-03-12T08:07:59.687Z,1016.85
2019-03-12T08:09:03.765Z,1016.84
2019-03-12T08:10:08.183Z,1016.84
2019-03-12T08:11:12.301Z,1016.84
2019-03-12T08:12:16.576Z,1016.84
2019-03-12T08:13:20.795Z,1016.82
2019-03-12T08:14:26.854Z,1016.79
2019-03-12T08:15:29.272Z,1016.78
2019-03-12T08:16:33.615Z,1016.73
2019-03-12T08:17:37.782Z,1016.73
2019-03-12T08:18:42.005Z,1016.72
2019-03-12T08:19:46.339Z,1016.72
2019-03-12T08:20:50.521Z,1016.71
2019-03-12T08:21:54.597Z,1016.72
2019-03-12T08:22:58.850Z,1016.68
2019-03-12T08:24:03.035Z,1016.64
2019-03-12T08:25:07.273Z,1016.60
2019-03-12T08:26:11.428Z,1016.58
2019-03-12T08:27:15.690Z,1016.63
2019-03-12T08:28:19.882Z,1016.59
2019-03-12T08:29:24.004Z,1016.57
2019-03-12T08:30:28.296Z,1016.55
2019-03-12T08:31:32.430Z,1016.52
2019-03-12T08:32:36.706Z,1016.49
2019-03-12T08:33:50.323Z,1016.50
2019-03-12T08:34:45.221Z,1016.49
2019-03-12T08:35:49.404Z,1016.51
2019-03-12T08:36:53.617Z,1016.50
2019-03-12T08:37:57.843Z,1016.48
2019-03-12T08:39:01.955Z,1016.45
2019-03-12T08:40:06.116Z,1016.42
2019-03-12T08:41:10.423Z,1016.40
2019-03-12T08:42:14.530Z,1016.37
2019-03-12T08:43:18.811Z,1016.36
2019-03-12T08:44:26.127Z,1016.35
2019-03-12T08:45:27.107Z,1016.32
2019-03-12T08:46:31.446Z,1016.30
2019-03-12T08:47:35.650Z,1016.26
2019-03-12T08:48:39.844Z,1016.27
2019-03-12T08:49:43.944Z,1016.26
2019-03-12T08:50:48.104Z,1016.25
2019-03-12T08:51:52.383Z,1016.17
2019-03-12T08:52:56.430Z,1016.15
2019-03-12T08:54:00.711Z,1016.12
2019-03-12T08:55:04.817Z,1016.12
2019-03-12T08:56:08.989Z,1016.06
2019-03-12T08:57:13.160Z,1016.03
2019-03-12T08:58:17.341Z,1015.98
2019-03-12T08:59:21.620Z,1015.98
2019-03-12T09:00:25.850Z,1015.96
2019-03-12T09:01:29.953Z,1015.95
2019-03-12T09:02:34.148Z,1015.91
2019-03-12T09:03:38.401Z,1015.87
2019-03-12T09:04:42.665Z,1015.86
2019-03-12T09:05:46.721Z,1015.85
2019-03-12T09:06:50.908Z,1015.79
2019-03-12T09:07:55.078Z,1015.69
2019-03-12T09:08:59.341Z,1015.65
2019-03-12T09:10:03.498Z,1015.65
2019-03-12T09:11:07.670Z,1015.64
2019-03-12T09:12:11.847Z,1015.62
2019-03-12T09:13:16.049Z,1015.62
2019-03-12T09:14:20.208Z,1015.61
2019-03-12T09:15:24.410Z,1015.59
2019-03-12T09:16:28.676Z,1015.59
2019-03-12T09:17:33.035Z,1015.59
2019-03-12T09:18:37.167Z,1015.59
2019-03-12T09:19:41.333Z,1015.58
2019-03-12T09:20:45.493Z,1015.56
2019-03-12T09:21:49.758Z,1015.57
2019-03-12T09:22:54.013Z,1015.55
2019-03-12T09:23:58.159Z,1015.58
2019-03-12T09:25:03.278Z,1015.58
2019-03-12T09:26:07.144Z,1015.57
2019-03-12T09:27:11.475Z,1015.60
2019-03-12T09:28:15.466Z,1015.58
2019-03-12T09:29:19.735Z,1015.55
2019-03-12T09:30:23.998Z,1015.50
2019-03-12T09:31:28.156Z,1015.48
2019-03-12T09:32:32.493Z,1015.46
2019-03-12T09:33:36.679Z,1015.46
2019-03-12T09:34:40.838Z,1015.48
2019-03-12T09:35:45.082Z,1015.43
2019-03-12T09:36:49.304Z,1015.41
2019-03-12T09:37:53.400Z,1015.40
2019-03-12T09:38:57.851Z,1015.38
2019-03-12T09:40:02.085Z,1015.37
2019-03-12T09:41:06.254Z,1015.32
2019-03-12T09:42:10.407Z,1015.27
2019-03-12T09:43:14.642Z,1015.26
2019-03-12T09:44:18.851Z,1015.25
2019-03-12T09:45:23.003Z,1015.20
2019-03-12T09:46:27.254Z,1015.20
2019-03-12T09:47:31.473Z,1015.18
2019-03-12T09:48:35.736Z,1015.12
2019-03-12T09:49:39.972Z,1015.14
2019-03-12T09:50:44.184Z,1015.10
2019-03-12T09:51:48.407Z,1015.08
2019-03-12T09:52:52.617Z,1015.07
2019-03-12T09:53:56.747Z,1015.00
2019-03-12T09:55:01.090Z,1015.02
2019-03-12T09:56:05.327Z,1014.98
2019-03-12T09:57:09.563Z,1014.97
2019-03-12T09:58:13.871Z,1014.92
2019-03-12T09:59:18.117Z,1014.89
2019-03-12T10:00:22.327Z,1014.88
2019-03-12T10:01:26.469Z,1014.85
2019-03-12T10:02:30.754Z,1014.82
2019-03-12T10:03:35.054Z,1014.75
2019-03-12T10:04:39.227Z,1014.76
2019-03-12T10:05:43.445Z,1014.80
2019-03-12T10:06:47.777Z,1014.78
2019-03-12T10:07:51.945Z,1014.75
2019-03-12T10:08:56.114Z,1014.70
2019-03-12T10:10:00.418Z,1014.67
2019-03-12T10:11:04.672Z,1014.62
2019-03-12T10:12:08.861Z,1014.62
2019-03-12T10:13:12.969Z,1014.61
2019-03-12T10:14:17.230Z,1014.59
2019-03-12T10:15:21.316Z,1014.52
2019-03-12T10:16:25.794Z,1014.48
2019-03-12T10:17:29.898Z,1014.48
2019-03-12T10:18:34.186Z,1014.46
2019-03-12T10:19:38.466Z,1014.42
2019-03-12T10:20:42.739Z,1014.43
2019-03-12T10:21:46.998Z,1014.40
2019-03-12T10:22:51.305Z,1014.38
2019-03-12T10:23:55.587Z,1014.37
2019-03-12T10:24:59.795Z,1014.33
2019-03-12T10:26:04.031Z,1014.31
2019-03-12T10:27:08.349Z,1014.26
2019-03-12T10:28:13.389Z,1014.23
2019-03-12T10:29:17.157Z,1014.18
2019-03-12T10:30:21.388Z,1014.16
2019-03-12T10:31:25.676Z,1014.11
2019-03-12T10:32:29.899Z,1014.13
2019-03-12T10:33:34.278Z,1014.08
2019-03-12T10:34:38.542Z,1014.10
2019-03-12T10:35:42.760Z,1014.07
2019-03-12T10:36:47.054Z,1014.00
2019-03-12T10:37:51.274Z,1013.99
2019-03-12T10:38:55.425Z,1013.95
2019-03-12T10:39:59.587Z,1013.94
2019-03-12T10:41:03.860Z,1013.90
2019-03-12T10:42:08.116Z,1013.90
2019-03-12T10:43:12.432Z,1013.90
2019-03-12T10:44:16.601Z,1013.90
2019-03-12T10:45:20.803Z,1013.86
2019-03-12T10:46:25.127Z,1013.85
2019-03-12T10:47:29.256Z,1013.88
2019-03-12T10:48:33.473Z,1013.85
2019-03-12T10:49:37.946Z,1013.81
2019-03-12T10:50:41.934Z,1013.74
2019-03-12T10:51:46.004Z,1013.66
2019-03-12T10:52:50.378Z,1013.60
2019-03-12T10:53:54.534Z,1013.62
2019-03-12T10:55:11.783Z,1013.58
2019-03-12T10:56:02.929Z,1013.57
2019-03-12T10:57:07.165Z,1013.52
2019-03-12T10:58:11.426Z,1013.53
2019-03-12T10:59:15.813Z,1013.53
2019-03-12T11:00:20.024Z,1013.51
2019-03-12T11:01:24.254Z,1013.47
2019-03-12T11:02:28.491Z,1013.48
2019-03-12T11:03:32.669Z,1013.43
2019-03-12T11:04:36.914Z,1013.37
2019-03-12T11:05:45.848Z,1013.34
2019-03-12T11:06:45.526Z,1013.30
2019-03-12T11:07:49.727Z,1013.30
2019-03-12T11:08:53.953Z,1013.22
2019-03-12T11:09:58.109Z,1013.24
2019-03-12T11:11:02.529Z,1013.18
2019-03-12T11:12:06.758Z,1013.15
2019-03-12T11:13:14.223Z,1013.11
2019-03-12T11:14:15.226Z,1013.08
2019-03-12T11:15:19.390Z,1013.09
2019-03-12T11:16:23.640Z,1013.05
2019-03-12T11:17:27.862Z,1013.00
2019-03-12T11:18:32.121Z,1013.00
2019-03-12T11:19:36.253Z,1013.01
2019-03-12T11:20:40.506Z,1013.04
2019-03-12T11:21:44.704Z,1012.99
2019-03-12T11:22:49.063Z,1012.99
2019-03-12T11:23:53.348Z,1013.01
2019-03-12T11:24:57.567Z,1012.99
2019-03-12T11:26:01.815Z,1012.99
2019-03-12T11:27:06.134Z,1012.97
2019-03-12T11:28:10.306Z,1012.96
2019-03-12T11:29:14.655Z,1012.93
2019-03-12T11:30:18.704Z,1012.95
2019-03-12T11:31:23.055Z,1012.96
2019-03-12T11:32:27.315Z,1012.93
2019-03-12T11:33:31.581Z,1012.93
2019-03-12T11:34:38.361Z,1012.93
2019-03-12T11:35:40.045Z,1012.93
2019-03-12T11:36:44.283Z,1012.87
2019-03-12T11:37:48.365Z,1012.83
2019-03-12T11:38:52.700Z,1012.86
2019-03-12T11:39:56.944Z,1012.81
2019-03-12T11:41:01.159Z,1012.78
2019-03-12T11:42:05.532Z,1012.78
2019-03-12T11:43:09.703Z,1012.76
2019-03-12T11:44:16.845Z,1012.71
2019-03-12T11:45:31.083Z,1012.71
2019-03-12T11:46:24.500Z,1012.72
2019-03-12T11:47:28.768Z,1012.72
2019-03-12T11:48:32.897Z,1012.72
2019-03-12T11:49:37.205Z,1012.71
2019-03-12T11:50:41.454Z,1012.70
2019-03-12T11:51:45.683Z,1012.68
2019-03-12T11:52:56.310Z,1012.69
2019-03-12T11:53:54.187Z,1012.65
2019-03-12T11:54:58.436Z,1012.59
2019-03-12T11:56:02.871Z,1012.57
2019-03-12T11:57:07.051Z,1012.50
2019-03-12T11:58:11.274Z,1012.53
2019-03-12T11:59:15.584Z,1012.49
2019-03-12T12:00:19.863Z,1012.44
2019-03-12T12:01:24.078Z,1012.42
2019-03-12T12:02:28.371Z,1012.42
2019-03-12T12:03:32.604Z,1012.41
2019-03-12T12:04:36.769Z,1012.37
2019-03-12T12:05:41.140Z,1012.36
2019-03-12T12:06:45.427Z,1012.38
2019-03-12T12:07:49.602Z,1012.36
2019-03-12T12:08:53.917Z,1012.33
2019-03-12T12:09:58.065Z,1012.37
2019-03-12T12:11:02.453Z,1012.33
2019-03-12T12:12:06.666Z,1012.32
2019-03-12T12:13:10.990Z,1012.29
2019-03-12T12:14:15.164Z,1012.26
2019-03-12T12:15:19.493Z,1012.25
2019-03-12T12:16:23.617Z,1012.26
2019-03-12T12:17:27.844Z,1012.23
2019-03-12T12:18:32.252Z,1012.18
2019-03-12T12:19:36.567Z,1012.18
2019-03-12T12:20:40.799Z,1012.17
2019-03-12T12:21:45.054Z,1012.14
2019-03-12T12:22:49.310Z,1012.15
2019-03-12T12:23:53.572Z,1012.11
2019-03-12T12:24:57.804Z,1012.10
2019-03-12T12:26:02.054Z,1012.06
2019-03-12T12:27:06.303Z,1012.06
2019-03-12T12:28:10.560Z,1012.02
2019-03-12T12:29:14.732Z,1011.99
2019-03-12T12:30:19.131Z,1011.97
2019-03-12T12:31:23.338Z,1011.97
2019-03-12T12:32:27.621Z,1011.90
2019-03-12T12:33:31.879Z,1011.89
2019-03-12T12:34:36.153Z,1011.87
2019-03-12T12:35:40.404Z,1011.84
2019-03-12T12:36:44.649Z,1011.78
2019-03-12T12:37:48.927Z,1011.72
2019-03-12T12:38:53.180Z,1011.69
2019-03-12T12:39:57.462Z,1011.67
2019-03-12T12:41:01.712Z,1011.63
2019-03-12T12:42:05.973Z,1011.61
2019-03-12T12:43:10.245Z,1011.57
2019-03-12T12:44:14.416Z,1011.53
2019-03-12T12:45:18.865Z,1011.49
2019-03-12T12:46:23.077Z,1011.46
2019-03-12T12:47:27.256Z,1011.43
2019-03-12T12:48:31.554Z,1011.40
2019-03-12T12:49:35.929Z,1011.40
2019-03-12T12:50:40.253Z,1011.40
2019-03-12T12:51:44.300Z,1011.37
2019-03-12T12:52:48.784Z,1011.35
2019-03-12T12:53:52.958Z,1011.35
2019-03-12T12:54:57.129Z,1011.35
2019-03-12T12:56:07.473Z,1011.30
2019-03-12T12:57:10.380Z,1011.29
2019-03-12T12:58:14.628Z,1011.22
2019-03-12T12:59:18.979Z,1011.22
2019-03-12T13:00:23.296Z,1011.24
2019-03-12T13:01:27.511Z,1011.19
2019-03-12T13:02:31.780Z,1011.17
2019-03-12T13:03:36.059Z,1011.18
2019-03-12T13:04:40.326Z,1011.18
2019-03-12T13:05:44.630Z,1011.15
2019-03-12T13:06:48.890Z,1011.15
2019-03-12T13:07:53.168Z,1011.14
2019-03-12T13:08:57.466Z,1011.10
2019-03-12T13:10:01.682Z,1011.12
2019-03-12T13:11:06.042Z,1011.10
2019-03-12T13:12:10.240Z,1011.04
2019-03-12T13:13:14.482Z,1011.01
2019-03-12T13:14:18.750Z,1010.92
2019-03-12T13:15:22.983Z,1010.98
2019-03-12T13:16:27.250Z,1010.93
2019-03-12T13:17:31.707Z,1010.86
2019-03-12T13:18:35.857Z,1010.83
2019-03-12T13:19:40.240Z,1010.78
2019-03-12T13:20:44.407Z,1010.75
2019-03-12T13:21:48.664Z,1010.77
2019-03-12T13:22:52.933Z,1010.75
2019-03-12T13:23:57.205Z,1010.75
2019-03-12T13:25:01.577Z,1010.71
2019-03-12T13:26:05.816Z,1010.71
2019-03-12T13:27:10.153Z,1010.67
2019-03-12T13:28:14.350Z,1010.63
2019-03-12T13:29:18.609Z,1010.64
2019-03-12T13:30:22.978Z,1010.61
2019-03-12T13:31:27.221Z,1010.57
2019-03-12T13:32:31.594Z,1010.53
2019-03-12T13:33:35.541Z,1010.51
2019-03-12T13:34:39.868Z,1010.48
2019-03-12T13:35:44.047Z,1010.47
2019-03-12T13:36:48.423Z,1010.41
2019-03-12T13:37:52.718Z,1010.39
2019-03-12T13:38:56.966Z,1010.36
2019-03-12T13:40:01.601Z,1010.31
2019-03-12T13:41:05.550Z,1010.29
2019-03-12T13:42:09.809Z,1010.24
2019-03-12T13:43:14.345Z,1010.27
2019-03-12T13:44:18.319Z,1010.24
2019-03-12T13:45:22.541Z,1010.18
2019-03-12T13:46:27.137Z,1010.16
2019-03-12T13:47:31.241Z,1010.11
2019-03-12T13:48:35.439Z,1010.11
2019-03-12T13:49:39.661Z,1010.07
2019-03-12T13:50:43.879Z,1010.07
2019-03-12T13:51:48.173Z,1010.06
2019-03-12T13:52:52.419Z,1010.04
2019-03-12T13:53:56.666Z,1010.03
2019-03-12T13:55:02.167Z,1009.99
2019-03-12T13:56:05.225Z,1009.98
2019-03-12T13:57:09.278Z,1009.96
2019-03-12T13:58:13.624Z,1009.94
2019-03-12T13:59:17.774Z,1009.91
2019-03-12T14:00:21.993Z,1009.91
2019-03-12T14:01:26.300Z,1009.85
2019-03-12T14:02:30.548Z,1009.82
2019-03-12T14:03:34.806Z,1009.83
2019-03-12T14:04:38.942Z,1009.82
2019-03-12T14:05:43.139Z,1009.80
2019-03-12T14:06:47.439Z,1009.77
2019-03-12T14:07:51.801Z,1009.74
2019-03-12T14:08:56.020Z,1009.70
2019-03-12T14:10:00.416Z,1009.70
2019-03-12T14:11:04.490Z,1009.68
2019-03-12T14:12:08.634Z,1009.67
2019-03-12T14:13:12.963Z,1009.65
2019-03-12T14:14:17.138Z,1009.67
2019-03-12T14:15:21.426Z,1009.67
2019-03-12T14:16:25.686Z,1009.64
2019-03-12T14:17:29.918Z,1009.65
2019-03-12T14:18:34.078Z,1009.65
2019-03-12T14:19:38.381Z,1009.63
2019-03-12T14:20:42.617Z,1009.61
2019-03-12T14:21:46.855Z,1009.59
2019-03-12T14:22:51.138Z,1009.55
2019-03-12T14:23:55.372Z,1009.52
2019-03-12T14:24:59.636Z,1009.49
2019-03-12T14:26:03.802Z,1009.49
2019-03-12T14:27:07.986Z,1009.43
2019-03-12T14:28:12.228Z,1009.43
2019-03-12T14:29:16.521Z,1009.42
2019-03-12T14:30:20.858Z,1009.39
2019-03-12T14:31:25.236Z,1009.37
2019-03-12T14:32:29.306Z,1009.35
2019-03-12T14:33:33.638Z,1009.32
2019-03-12T14:34:37.898Z,1009.27
2019-03-12T14:35:51.538Z,1009.30
2019-03-12T14:36:46.401Z,1009.24
2019-03-12T14:37:50.632Z,1009.21
2019-03-12T14:38:54.908Z,1009.18
2019-03-12T14:39:59.156Z,1009.17
2019-03-12T14:41:03.332Z,1009.12
2019-03-12T14:42:07.624Z,1009.10
2019-03-12T14:43:11.932Z,1009.06
2019-03-12T14:44:16.186Z,1009.06
2019-03-12T14:45:20.319Z,1009.07
2019-03-12T14:46:24.686Z,1009.04
2019-03-12T14:47:28.783Z,1009.03